Skip Navigation LinksHome page > Weather > Current weather Skip Navigation Links

Current Weather

New Tokyo International (Narita), Tokyo

For information only: do not use for flight planning or navigation.
Latest weather
Observation time Thursday, December 18, 2014 8:00 AM JST
Local time Thursday, December 18, 2014 8:25 AM JST
Flight conditions Visual Meteorological Conditions
Winds
Wind direction West (270°)
Winds variable from 230° to 290°
Wind speed 13 mph
Wind gusting to 24 mph
Visibility 6.2 mi.
Sky condition
Ceiling unlimited
Cloud layer few clouds 2,500 ft.
Temperature 37°F
Dewpoint 14°F
Altimeter 29.83 in.Hg
Derived measurements
Relative humidity 38%
Wind chill 29°F
Density altitude -1151 ft.
Remarks
No significant changes expected in the next two hours.
METAR RJAA 172300Z 27011G21KT 230V290 9999 FEW025 03/M10 Q1010 NOSIG RMK 1CU025 A2984

Settings

Location code

InnerDrive.Weather 4.0.5399.0 Release CLR 4.0.30319.34014
Copyright ©2014 Inner Drive Technology. All rights reserved. Portions Copyright ©1986-2014 David Braverman.

Find weather

Site navigation


Skip Navigation Links

Place info

Page info

PayPal - The safer, easier way to pay online!

Return home.

Copyright ©2014 Inner Drive Technology. Purveyors of fine, hand-crafted computer software. Page printed 2014-12-17T23:25:19 UTC.